עמוד ראשי
METAR-TAF:

METAR-TAF

שדות תעופה :

Soldotna, אלסקה, ארצות הברית

קו רוחב: 60-29N, קו אורך: 151-02W, גובה: 33מטר

תצפית מזג אוויר נוכחית

הדו"ח נערך לפני 1 שעות ו 12דקות, בשעה 14:56 UTC
רוח רגועה
טמפרטורת 11 צלסיוס
לחות 76%
לחץ 1019 hPa
ראות: 16.1קילומטר
עננים פזורים בגובה 9500רגל

METAR: PASX 151456Z AUTO 00000KT 10SM SCT095 11/07 A3009 RMK AO2 SLP196 T01110072 53002

זמן: 08:08 (16:08 UTC)


TAF: חסר

תצפיות ותחזיות מזג אוויר לגבי יותר מ- 4,000 שדות תעופה ברחבי העולם. דוחות METAR ו- TAF.

התחנות הזמינות מסומנות בנקודות צהובות ואדומות על גבי המפה.

העבר את העכבר לנקודה הצבעונית על מנת לראות את שם התחנה.

לאחר מכן, לחץ כדי לראות את תוכן ואת תחזיות מזג האוויר.

כדי לשנות את המפה: לחץ על הכפתורים הירוקים עם הפלוס השחור כדי להתקרב; על הכפתור הירוק עם המקף כדי להתרחק; או בחיצים הירוקים למפות סמוכות.


METAR-TAF: